createdAt,value
2022-07-29T00:02:16.389Z,3.10
2022-07-29T00:04:44.916Z,2.88
2022-07-29T00:07:13.347Z,3.25
2022-07-29T00:09:51.116Z,2.92
2022-07-29T00:12:25.518Z,3.45
2022-07-29T00:14:54.898Z,2.85
2022-07-29T00:17:24.590Z,3.30
2022-07-29T00:19:52.950Z,3.00
2022-07-29T00:22:21.487Z,3.00
2022-07-29T00:24:50.132Z,2.95
2022-07-29T00:27:18.630Z,3.50
2022-07-29T00:29:47.367Z,2.95
2022-07-29T00:32:15.870Z,2.90
2022-07-29T00:35:03.274Z,2.97
2022-07-29T00:37:31.623Z,3.08
2022-07-29T00:39:59.926Z,3.35
2022-07-29T00:42:28.523Z,2.80
2022-07-29T00:44:56.843Z,2.80
2022-07-29T00:47:25.193Z,3.22
2022-07-29T00:49:54.916Z,2.85
2022-07-29T00:52:23.295Z,3.13
2022-07-29T00:54:51.658Z,2.63
2022-07-29T00:57:20.051Z,3.30
2022-07-29T00:59:48.427Z,3.22
2022-07-29T01:02:16.819Z,3.65
2022-07-29T01:04:45.212Z,3.20
2022-07-29T01:07:14.918Z,2.75
2022-07-29T01:09:46.797Z,3.17
2022-07-29T01:12:16.323Z,3.35
2022-07-29T01:14:45.026Z,3.30
2022-07-29T01:17:14.956Z,2.90
2022-07-29T01:19:50.516Z,3.20
2022-07-29T01:22:28.536Z,3.22
2022-07-29T01:25:23.909Z,2.85
2022-07-29T01:28:03.957Z,3.55
2022-07-29T01:30:35.422Z,3.20
2022-07-29T01:33:05.955Z,3.25
2022-07-29T01:35:36.905Z,3.38
2022-07-29T01:38:08.885Z,3.53
2022-07-29T01:40:39.018Z,3.17
2022-07-29T01:43:12.145Z,3.20
2022-07-29T01:45:43.405Z,3.17
2022-07-29T01:48:14.494Z,3.38
2022-07-29T01:50:44.514Z,3.63
2022-07-29T01:53:13.428Z,3.53
2022-07-29T01:55:43.263Z,3.25
2022-07-29T01:58:12.108Z,3.42
2022-07-29T02:00:43.796Z,3.45
2022-07-29T02:03:14.170Z,3.28
2022-07-29T02:05:44.198Z,3.72
2022-07-29T02:08:13.502Z,3.53
2022-07-29T02:10:43.511Z,3.92
2022-07-29T02:13:12.591Z,3.70
2022-07-29T02:15:43.217Z,3.38
2022-07-29T02:18:13.949Z,3.38
2022-07-29T02:20:43.028Z,3.97
2022-07-29T02:23:13.149Z,3.33
2022-07-29T02:25:41.649Z,3.72
2022-07-29T02:28:11.458Z,3.38
2022-07-29T02:30:42.207Z,3.40
2022-07-29T02:33:13.381Z,3.53
2022-07-29T02:35:43.468Z,3.67
2022-07-29T02:38:29.558Z,4.38
2022-07-29T02:40:58.629Z,3.35
2022-07-29T02:43:27.622Z,3.78
2022-07-29T02:45:57.817Z,3.60
2022-07-29T02:48:30.495Z,3.63
2022-07-29T02:51:08.214Z,3.53
2022-07-29T02:53:38.048Z,3.65
2022-07-29T02:56:10.082Z,3.42
2022-07-29T02:58:40.985Z,3.85
2022-07-29T03:01:21.306Z,3.78
2022-07-29T03:03:53.514Z,3.40
2022-07-29T03:06:31.063Z,3.50
2022-07-29T03:09:12.271Z,3.50
2022-07-29T03:11:49.240Z,3.33
2022-07-29T03:14:20.513Z,3.92
2022-07-29T03:16:49.737Z,3.90
2022-07-29T03:19:19.506Z,3.95
2022-07-29T03:21:47.980Z,3.90
2022-07-29T03:24:27.500Z,3.53
2022-07-29T03:26:57.133Z,3.50
2022-07-29T03:29:25.526Z,4.05
2022-07-29T03:32:03.529Z,3.40
2022-07-29T03:34:33.467Z,3.65
2022-07-29T03:37:01.815Z,3.63
2022-07-29T03:39:32.819Z,4.00
2022-07-29T03:42:02.299Z,3.45
2022-07-29T03:44:31.370Z,3.90
2022-07-29T03:47:03.016Z,3.70
2022-07-29T03:49:33.854Z,3.55
2022-07-29T03:52:02.837Z,3.60
2022-07-29T03:54:31.199Z,3.58
2022-07-29T03:57:01.026Z,4.15
2022-07-29T03:59:29.729Z,3.30
2022-07-29T04:01:59.039Z,3.83
2022-07-29T04:04:27.881Z,3.58
2022-07-29T04:06:58.517Z,3.63
2022-07-29T04:09:26.889Z,3.40
2022-07-29T04:11:59.169Z,3.90
2022-07-29T04:14:32.311Z,3.85
2022-07-29T04:17:00.676Z,3.50
2022-07-29T04:19:29.085Z,4.15
2022-07-29T04:21:58.817Z,3.90
2022-07-29T04:24:27.190Z,3.50
2022-07-29T04:26:55.674Z,4.03
2022-07-29T04:29:24.016Z,3.90
2022-07-29T04:31:52.383Z,3.88
2022-07-29T04:34:21.149Z,3.45
2022-07-29T04:36:49.789Z,3.70
2022-07-29T04:39:22.916Z,3.90
2022-07-29T04:41:52.354Z,3.72
2022-07-29T04:44:21.271Z,3.10
2022-07-29T04:46:56.977Z,3.65
2022-07-29T04:49:25.606Z,3.47
2022-07-29T04:51:54.100Z,3.38
2022-07-29T04:54:33.230Z,3.08
2022-07-29T04:57:01.581Z,3.22
2022-07-29T04:59:29.928Z,3.28
2022-07-29T05:01:58.353Z,3.15
2022-07-29T05:04:26.844Z,3.40
2022-07-29T05:06:55.213Z,3.03
2022-07-29T05:09:23.565Z,3.22
2022-07-29T05:11:53.261Z,3.47
2022-07-29T05:14:21.620Z,3.03
2022-07-29T05:16:52.088Z,3.15
2022-07-29T05:19:20.456Z,3.28
2022-07-29T05:21:48.849Z,3.33
2022-07-29T05:24:17.468Z,3.58
2022-07-29T05:26:46.094Z,3.42
2022-07-29T05:29:44.566Z,2.80
2022-07-29T05:32:04.135Z,2.85
2022-07-29T05:34:32.481Z,2.80
2022-07-29T05:37:00.926Z,3.47
2022-07-29T05:39:48.649Z,3.10
2022-07-29T05:42:17.764Z,3.17
2022-07-29T05:44:48.413Z,3.40
2022-07-29T05:47:17.017Z,3.00
2022-07-29T05:49:45.390Z,3.30
2022-07-29T05:52:14.145Z,3.33
2022-07-29T05:54:42.608Z,3.45
2022-07-29T05:57:11.040Z,3.53
2022-07-29T05:59:39.468Z,3.17
2022-07-29T06:02:09.246Z,2.95
2022-07-29T06:04:37.656Z,3.20
2022-07-29T06:07:06.326Z,3.25
2022-07-29T06:09:36.288Z,3.13
2022-07-29T06:12:05.261Z,3.08
2022-07-29T06:14:33.652Z,3.03
2022-07-29T06:17:02.050Z,2.88
2022-07-29T06:19:31.794Z,3.30
2022-07-29T06:22:00.183Z,2.92
2022-07-29T06:24:28.522Z,3.40
2022-07-29T06:26:56.932Z,2.92
2022-07-29T06:29:25.451Z,3.15
2022-07-29T06:31:53.810Z,3.15
2022-07-29T06:34:22.222Z,2.97
2022-07-29T06:36:53.697Z,2.80
2022-07-29T06:39:22.617Z,3.20
2022-07-29T06:41:51.507Z,3.05
2022-07-29T06:44:20.432Z,3.15
2022-07-29T06:46:50.223Z,3.10
2022-07-29T06:49:18.663Z,2.97
2022-07-29T06:51:47.575Z,2.75
2022-07-29T06:54:17.755Z,2.42
2022-07-29T06:56:46.355Z,2.88
2022-07-29T06:59:15.414Z,3.85
2022-07-29T07:01:44.765Z,2.75
2022-07-29T07:04:14.582Z,2.60
2022-07-29T07:06:43.556Z,2.85
2022-07-29T07:09:11.913Z,2.50
2022-07-29T07:11:41.613Z,2.45
2022-07-29T07:14:09.982Z,2.55
2022-07-29T07:16:38.396Z,2.72
2022-07-29T07:19:06.746Z,2.80
2022-07-29T07:21:36.420Z,2.55
2022-07-29T07:24:04.753Z,2.55
2022-07-29T07:26:33.299Z,2.90
2022-07-29T07:29:02.977Z,2.80
2022-07-29T07:31:31.506Z,2.63
2022-07-29T07:34:00.095Z,2.47
2022-07-29T07:36:28.426Z,2.75
2022-07-29T07:38:56.760Z,2.50
2022-07-29T07:41:25.176Z,2.28
2022-07-29T07:43:53.539Z,2.35
2022-07-29T07:46:23.276Z,2.65
2022-07-29T07:48:53.262Z,2.10
2022-07-29T07:51:21.661Z,2.75
2022-07-29T07:53:51.350Z,2.42
2022-07-29T07:56:19.707Z,2.70
2022-07-29T07:58:48.079Z,2.80
2022-07-29T08:01:20.000Z,2.35
2022-07-29T08:03:50.885Z,2.65
2022-07-29T08:06:19.202Z,2.58
2022-07-29T08:08:47.678Z,2.50
2022-07-29T08:11:16.032Z,2.42
2022-07-29T08:13:44.378Z,2.58
2022-07-29T08:16:16.459Z,2.78
2022-07-29T08:18:46.328Z,2.50
2022-07-29T08:21:17.125Z,2.45
2022-07-29T08:23:59.686Z,2.50
2022-07-29T08:26:28.228Z,2.05
2022-07-29T08:28:56.594Z,2.38
2022-07-29T08:31:25.019Z,2.88
2022-07-29T08:33:53.401Z,2.45
2022-07-29T08:36:23.130Z,2.50
2022-07-29T08:38:51.991Z,2.50
2022-07-29T08:41:20.931Z,2.55
2022-07-29T08:43:49.522Z,2.58
2022-07-29T08:46:19.008Z,2.58
2022-07-29T08:48:48.172Z,2.30
2022-07-29T08:51:17.241Z,2.45
2022-07-29T08:53:48.389Z,2.45
2022-07-29T08:56:17.824Z,2.25
2022-07-29T08:58:46.866Z,2.80
2022-07-29T09:01:24.038Z,2.20
2022-07-29T09:04:05.712Z,2.58
2022-07-29T09:06:35.231Z,2.13
2022-07-29T09:09:06.410Z,2.28
2022-07-29T09:11:35.471Z,2.30
2022-07-29T09:14:03.818Z,2.25
2022-07-29T09:16:53.162Z,2.47
2022-07-29T09:19:30.672Z,2.50
2022-07-29T09:21:58.606Z,2.40
2022-07-29T09:24:28.821Z,2.67
2022-07-29T09:26:57.179Z,2.28
2022-07-29T09:29:26.559Z,2.47
2022-07-29T09:31:55.592Z,2.22
2022-07-29T09:34:25.552Z,2.22
2022-07-29T09:36:54.844Z,2.35
2022-07-29T09:39:31.841Z,2.45
2022-07-29T09:42:01.046Z,2.95
2022-07-29T09:44:29.615Z,2.08
2022-07-29T09:46:59.707Z,2.10
2022-07-29T09:49:28.414Z,2.17
2022-07-29T09:52:07.248Z,2.10
2022-07-29T09:54:38.755Z,2.70
2022-07-29T09:57:07.623Z,2.28
2022-07-29T09:59:36.385Z,2.50
2022-07-29T10:02:22.277Z,2.25
2022-07-29T10:04:52.731Z,2.15
2022-07-29T10:07:21.119Z,2.58
2022-07-29T10:09:55.383Z,2.28
2022-07-29T10:12:23.866Z,2.05
2022-07-29T10:14:52.860Z,2.47
2022-07-29T10:17:21.555Z,2.40
2022-07-29T10:19:50.938Z,2.33
2022-07-29T10:22:43.296Z,2.80
2022-07-29T10:25:09.935Z,2.42
2022-07-29T10:27:38.381Z,2.50
2022-07-29T10:30:07.100Z,2.90
2022-07-29T10:32:41.892Z,2.33
2022-07-29T10:35:21.857Z,2.45
2022-07-29T10:37:59.899Z,2.47
2022-07-29T10:40:55.083Z,2.35
2022-07-29T10:43:26.967Z,2.30
2022-07-29T10:45:59.452Z,2.30
2022-07-29T10:48:27.993Z,2.63
2022-07-29T10:50:57.828Z,2.60
2022-07-29T10:53:27.110Z,2.60
2022-07-29T10:56:06.478Z,2.53
2022-07-29T10:58:36.070Z,2.20
2022-07-29T11:01:37.099Z,2.50
2022-07-29T11:04:07.221Z,2.60
2022-07-29T11:06:51.937Z,2.55
2022-07-29T11:09:25.762Z,2.45
2022-07-29T11:12:05.483Z,2.40
2022-07-29T11:14:49.674Z,2.53
2022-07-29T11:17:18.047Z,2.22
2022-07-29T11:19:52.112Z,2.53
2022-07-29T11:22:34.890Z,2.70
2022-07-29T11:25:16.812Z,3.22
2022-07-29T11:27:47.220Z,2.60
2022-07-29T11:30:16.585Z,3.00
2022-07-29T11:32:48.544Z,2.63
2022-07-29T11:35:22.299Z,2.83
2022-07-29T11:38:27.981Z,2.67
2022-07-29T11:41:11.531Z,2.72
2022-07-29T11:43:52.179Z,2.70
2022-07-29T11:46:25.077Z,2.70
2022-07-29T11:48:53.770Z,2.53
2022-07-29T11:54:15.740Z,2.80
2022-07-29T11:56:46.743Z,2.88
2022-07-29T11:59:18.630Z,2.80
2022-07-29T12:02:12.056Z,2.80
2022-07-29T12:04:51.204Z,2.95
2022-07-29T12:07:20.747Z,2.90
2022-07-29T12:09:52.861Z,2.50
2022-07-29T12:12:28.167Z,2.97
2022-07-29T12:14:58.185Z,2.97
2022-07-29T12:17:30.518Z,2.60
2022-07-29T12:19:59.711Z,2.60
2022-07-29T12:22:29.028Z,2.85
2022-07-29T12:25:30.044Z,2.88
2022-07-29T12:27:46.765Z,2.85
2022-07-29T12:30:17.618Z,2.40
2022-07-29T12:32:47.774Z,2.70
2022-07-29T12:35:17.003Z,2.70
2022-07-29T12:37:46.235Z,2.70
2022-07-29T12:40:17.155Z,2.72
2022-07-29T12:43:07.857Z,2.83
2022-07-29T12:45:37.991Z,2.78
2022-07-29T12:48:10.368Z,2.92
2022-07-29T12:50:39.288Z,2.88
2022-07-29T12:53:17.689Z,2.67
2022-07-29T12:55:50.057Z,2.90
2022-07-29T12:58:29.206Z,2.92
2022-07-29T13:01:17.227Z,2.97
2022-07-29T13:03:57.762Z,2.63
2022-07-29T13:06:35.803Z,2.47
2022-07-29T13:09:05.657Z,2.80
2022-07-29T13:11:37.755Z,3.13
2022-07-29T13:14:07.165Z,3.10
2022-07-29T13:16:37.843Z,2.92
2022-07-29T13:19:10.789Z,2.88
2022-07-29T13:24:19.753Z,2.63
2022-07-29T13:26:48.521Z,2.90
2022-07-29T13:29:16.889Z,3.38
2022-07-29T13:31:46.938Z,3.05
2022-07-29T13:34:15.322Z,3.03
2022-07-29T13:36:44.065Z,2.60
2022-07-29T13:39:12.510Z,2.88
2022-07-29T13:41:41.095Z,2.60
2022-07-29T13:44:09.440Z,3.03
2022-07-29T13:46:39.558Z,2.90
2022-07-29T13:49:10.192Z,2.80
2022-07-29T13:51:38.613Z,3.20
2022-07-29T13:54:07.026Z,3.10
2022-07-29T13:56:35.504Z,2.83
2022-07-29T13:59:03.835Z,2.92
2022-07-29T14:01:32.360Z,3.22
2022-07-29T14:04:02.475Z,3.08
2022-07-29T14:06:33.335Z,3.00
2022-07-29T14:09:01.664Z,2.88
2022-07-29T14:11:30.116Z,2.92
2022-07-29T14:13:58.597Z,3.50
2022-07-29T14:16:26.997Z,2.92
2022-07-29T14:18:55.735Z,2.78
2022-07-29T14:21:24.149Z,3.60
2022-07-29T14:23:55.702Z,2.65
2022-07-29T14:26:25.045Z,3.05
2022-07-29T14:28:53.398Z,3.40
2022-07-29T14:31:21.756Z,3.10
2022-07-29T14:33:50.241Z,3.08
2022-07-29T14:36:18.847Z,3.10
2022-07-29T14:38:49.017Z,2.75
2022-07-29T14:41:18.814Z,2.97
2022-07-29T14:43:57.479Z,2.55
2022-07-29T14:46:25.923Z,2.55
2022-07-29T14:48:54.510Z,2.83
2022-07-29T14:51:22.949Z,2.88
2022-07-29T14:53:51.309Z,2.67
2022-07-29T14:56:36.484Z,2.90
2022-07-29T14:59:06.884Z,3.05
2022-07-29T15:01:35.333Z,2.92
2022-07-29T15:04:04.295Z,3.22
2022-07-29T15:06:33.011Z,2.67
2022-07-29T15:09:01.501Z,3.15
2022-07-29T15:11:31.602Z,2.78
2022-07-29T15:14:06.542Z,3.13
2022-07-29T15:16:37.609Z,3.15
2022-07-29T15:19:06.214Z,2.92
2022-07-29T15:21:34.639Z,2.60
2022-07-29T15:24:09.975Z,2.60
2022-07-29T15:26:39.815Z,3.00
2022-07-29T15:29:08.349Z,3.25
2022-07-29T15:31:36.893Z,2.90
2022-07-29T15:34:06.550Z,2.72
2022-07-29T15:36:51.533Z,3.10
2022-07-29T15:39:21.242Z,3.30
2022-07-29T15:41:51.226Z,4.00
2022-07-29T15:44:19.654Z,3.33
2022-07-29T15:47:08.114Z,3.50
2022-07-29T15:49:47.060Z,4.00
2022-07-29T15:52:18.210Z,4.32
2022-07-29T15:54:46.939Z,4.43
2022-07-29T15:57:16.639Z,4.50
2022-07-29T15:59:45.037Z,4.40
2022-07-29T16:02:13.475Z,4.32
2022-07-29T16:04:41.899Z,4.45
2022-07-29T16:28:06.431Z,5.22
2022-07-29T16:30:34.822Z,5.15
2022-07-29T16:33:07.833Z,5.57
2022-07-29T16:38:07.769Z,5.25
2022-07-29T16:40:36.117Z,5.45
2022-07-29T16:43:06.553Z,5.50
2022-07-29T16:45:45.562Z,5.13
2022-07-29T16:48:15.042Z,5.10
2022-07-29T16:50:46.337Z,5.40
2022-07-29T16:53:15.060Z,4.90
2022-07-29T16:55:43.835Z,5.15
2022-07-29T16:58:13.695Z,5.07
2022-07-29T17:00:42.149Z,5.07
2022-07-29T17:03:10.546Z,5.65
2022-07-29T17:05:50.354Z,5.93
2022-07-29T17:08:20.500Z,3.78
2022-07-29T17:10:48.903Z,3.78
2022-07-29T17:13:18.605Z,4.13
2022-07-29T17:15:47.044Z,3.92
2022-07-29T17:18:15.416Z,3.90
2022-07-29T17:20:43.920Z,3.80
2022-07-29T17:23:12.239Z,4.05
2022-07-29T17:25:41.172Z,4.20
2022-07-29T17:28:09.546Z,4.30
2022-07-29T17:30:39.301Z,4.32
2022-07-29T17:33:07.652Z,4.60
2022-07-29T17:35:53.698Z,4.90
2022-07-29T17:38:22.031Z,3.75
2022-07-29T17:40:50.363Z,4.20
2022-07-29T17:43:18.691Z,4.72
2022-07-29T17:45:50.303Z,4.05
2022-07-29T17:48:19.210Z,3.97
2022-07-29T17:50:48.146Z,4.32
2022-07-29T17:53:17.288Z,4.15
2022-07-29T17:55:46.330Z,4.78
2022-07-29T17:58:14.693Z,4.57
2022-07-29T18:00:43.158Z,4.43
2022-07-29T18:03:13.173Z,4.63
2022-07-29T18:05:41.642Z,4.75
2022-07-29T18:08:10.181Z,4.78
2022-07-29T18:10:38.963Z,4.60
2022-07-29T18:13:07.356Z,4.35
2022-07-29T18:15:35.679Z,4.55
2022-07-29T18:18:04.035Z,4.90
2022-07-29T18:20:34.137Z,4.28
2022-07-29T18:23:02.989Z,5.00
2022-07-29T18:25:31.355Z,4.70
2022-07-29T18:28:00.655Z,5.00
2022-07-29T18:30:29.430Z,4.30
2022-07-29T18:33:19.672Z,4.93
2022-07-29T18:35:48.209Z,4.70
2022-07-29T18:38:16.622Z,5.00
2022-07-29T18:40:45.930Z,5.05
2022-07-29T18:43:14.526Z,4.80
2022-07-29T18:45:42.917Z,5.20
2022-07-29T18:48:13.307Z,5.40
2022-07-29T18:50:42.147Z,5.28
2022-07-29T18:53:11.984Z,4.90
2022-07-29T18:55:40.332Z,4.70
2022-07-29T18:58:08.688Z,4.70
2022-07-29T19:00:37.082Z,5.40
2022-07-29T19:03:05.604Z,4.90
2022-07-29T19:05:34.091Z,5.00
2022-07-29T19:08:02.395Z,5.07
2022-07-29T19:10:32.471Z,5.15
2022-07-29T19:13:00.775Z,4.95
2022-07-29T19:15:29.235Z,5.40
2022-07-29T19:18:01.002Z,4.63
2022-07-29T19:20:29.999Z,5.10
2022-07-29T19:22:58.572Z,5.70
2022-07-29T19:25:27.168Z,4.90
2022-07-29T19:27:56.922Z,4.65
2022-07-29T19:30:25.295Z,5.18
2022-07-29T19:32:53.649Z,5.38
2022-07-29T19:35:32.467Z,5.47
2022-07-29T19:38:01.929Z,5.47
2022-07-29T19:40:31.009Z,5.25
2022-07-29T19:43:00.976Z,5.20
2022-07-29T19:45:30.467Z,5.57
2022-07-29T19:48:01.468Z,5.80
2022-07-29T19:50:33.330Z,5.30
2022-07-29T19:53:02.041Z,5.32
2022-07-29T19:55:30.458Z,5.47
2022-07-29T19:57:59.737Z,5.38
2022-07-29T20:00:31.330Z,5.38
2022-07-29T20:02:59.672Z,4.57
2022-07-29T20:05:28.455Z,4.75
2022-07-29T20:07:56.923Z,4.57
2022-07-29T20:10:25.350Z,4.70
2022-07-29T20:12:55.104Z,4.50
2022-07-29T20:15:23.833Z,4.38
2022-07-29T20:17:57.221Z,4.47
2022-07-29T20:22:54.013Z,4.35
2022-07-29T20:25:22.417Z,4.70
2022-07-29T20:27:52.426Z,4.28
2022-07-29T20:30:21.337Z,4.43
2022-07-29T20:32:49.712Z,4.20
2022-07-29T20:35:19.826Z,4.72
2022-07-29T20:37:52.079Z,4.72
2022-07-29T20:40:24.736Z,4.68
2022-07-29T20:42:53.105Z,5.00
2022-07-29T20:45:21.495Z,4.20
2022-07-29T20:47:50.738Z,5.10
2022-07-29T20:50:23.656Z,5.10
2022-07-29T20:52:52.768Z,5.47
2022-07-29T20:55:24.148Z,5.55
2022-07-29T20:57:52.509Z,5.53
2022-07-29T21:00:21.353Z,6.18
2022-07-29T21:02:49.773Z,5.88
2022-07-29T21:05:18.231Z,6.65
2022-07-29T21:07:47.951Z,5.78
2022-07-29T21:10:18.273Z,5.30
2022-07-29T21:12:47.504Z,5.68
2022-07-29T21:15:16.330Z,6.03
2022-07-29T21:17:47.907Z,5.88
2022-07-29T21:20:16.600Z,5.80
2022-07-29T21:22:45.010Z,5.95
2022-07-29T21:25:14.725Z,6.32
2022-07-29T21:28:00.938Z,5.63
2022-07-29T21:30:29.283Z,6.25
2022-07-29T21:32:57.685Z,5.93
2022-07-29T21:36:02.118Z,5.75
2022-07-29T21:38:16.340Z,6.60
2022-07-29T21:40:46.581Z,6.25
2022-07-29T21:43:14.930Z,5.45
2022-07-29T21:45:43.853Z,6.20
2022-07-29T21:48:12.262Z,5.93
2022-07-29T21:50:40.634Z,6.10
2022-07-29T21:53:08.980Z,5.90
2022-07-29T21:55:41.331Z,6.10
2022-07-29T21:58:11.868Z,6.32
2022-07-29T22:00:41.347Z,6.40
2022-07-29T22:03:12.941Z,5.70
2022-07-29T22:05:41.337Z,6.25
2022-07-29T22:08:09.832Z,6.30
2022-07-29T22:10:38.172Z,6.50
2022-07-29T22:13:06.549Z,6.15
2022-07-29T22:15:36.431Z,6.22
2022-07-29T22:18:04.919Z,6.07
2022-07-29T22:20:33.268Z,6.72
2022-07-29T22:23:01.678Z,6.35
2022-07-29T22:25:30.044Z,5.95
2022-07-29T22:27:58.381Z,6.45
2022-07-29T22:30:26.842Z,6.22
2022-07-29T22:32:56.609Z,6.18
2022-07-29T22:35:25.022Z,6.10
2022-07-29T22:37:54.193Z,6.03
2022-07-29T22:40:22.616Z,5.70
2022-07-29T22:42:59.216Z,6.13
2022-07-29T22:45:27.581Z,5.80
2022-07-29T22:47:59.067Z,6.10
2022-07-29T22:50:27.921Z,6.13
2022-07-29T22:52:56.286Z,6.32
2022-07-29T22:55:24.621Z,6.53
2022-07-29T22:57:52.966Z,6.50
2022-07-29T23:00:21.298Z,6.90
2022-07-29T23:02:49.647Z,6.30
2022-07-29T23:05:20.125Z,7.20
2022-07-29T23:07:48.472Z,6.97
2022-07-29T23:10:16.793Z,6.68
2022-07-29T23:12:45.158Z,6.70
2022-07-29T23:15:13.714Z,7.22
2022-07-29T23:17:42.042Z,6.90
2022-07-29T23:20:11.334Z,7.85
2022-07-29T23:22:44.427Z,7.53
2022-07-29T23:25:12.796Z,8.43
2022-07-29T23:27:41.237Z,7.80
2022-07-29T23:30:10.586Z,7.50
2022-07-29T23:32:39.018Z,8.07
2022-07-29T23:35:08.186Z,7.47
2022-07-29T23:37:36.665Z,7.88
2022-07-29T23:40:09.676Z,7.85
2022-07-29T23:42:40.667Z,7.57
2022-07-29T23:45:09.918Z,7.43
2022-07-29T23:47:38.317Z,7.25
2022-07-29T23:50:06.973Z,7.28
2022-07-29T23:52:35.675Z,6.90
2022-07-29T23:55:38.146Z,7.18
2022-07-29T23:57:53.902Z,7.88
